sensor_id;sensor_type;location;lat;lon;timestamp;P1;durP1;ratioP1;P2;durP2;ratioP2
17052;SDS011;8643;48.824;11.422;2024-01-27T00:00:26;8.83;;;3.00;;
17052;SDS011;8643;48.824;11.422;2024-01-27T00:02:54;7.20;;;2.60;;
17052;SDS011;8643;48.824;11.422;2024-01-27T00:05:23;8.87;;;3.00;;
17052;SDS011;8643;48.824;11.422;2024-01-27T00:07:58;5.07;;;2.60;;
17052;SDS011;8643;48.824;11.422;2024-01-27T00:10:26;6.67;;;3.47;;
17052;SDS011;8643;48.824;11.422;2024-01-27T00:12:54;7.70;;;3.03;;
17052;SDS011;8643;48.824;11.422;2024-01-27T00:15:24;6.80;;;2.93;;
17052;SDS011;8643;48.824;11.422;2024-01-27T00:17:52;8.53;;;3.20;;
17052;SDS011;8643;48.824;11.422;2024-01-27T00:20:21;9.93;;;3.50;;
17052;SDS011;8643;48.824;11.422;2024-01-27T00:22:50;6.00;;;2.97;;
17052;SDS011;8643;48.824;11.422;2024-01-27T00:25:20;9.60;;;3.83;;
17052;SDS011;8643;48.824;11.422;2024-01-27T00:27:49;6.90;;;2.93;;
17052;SDS011;8643;48.824;11.422;2024-01-27T00:30:17;6.53;;;2.63;;
17052;SDS011;8643;48.824;11.422;2024-01-27T00:32:46;6.73;;;2.63;;
17052;SDS011;8643;48.824;11.422;2024-01-27T00:35:14;9.40;;;2.73;;
17052;SDS011;8643;48.824;11.422;2024-01-27T00:37:43;11.03;;;2.87;;
17052;SDS011;8643;48.824;11.422;2024-01-27T00:40:11;11.00;;;3.03;;
17052;SDS011;8643;48.824;11.422;2024-01-27T00:42:42;7.70;;;2.87;;
17052;SDS011;8643;48.824;11.422;2024-01-27T00:45:10;6.87;;;3.07;;
17052;SDS011;8643;48.824;11.422;2024-01-27T00:47:39;9.03;;;3.20;;
17052;SDS011;8643;48.824;11.422;2024-01-27T00:50:08;7.13;;;2.93;;
17052;SDS011;8643;48.824;11.422;2024-01-27T00:52:37;8.17;;;3.17;;
17052;SDS011;8643;48.824;11.422;2024-01-27T00:55:06;6.97;;;2.93;;
17052;SDS011;8643;48.824;11.422;2024-01-27T00:57:35;6.27;;;2.90;;
17052;SDS011;8643;48.824;11.422;2024-01-27T01:00:06;5.53;;;2.60;;
17052;SDS011;8643;48.824;11.422;2024-01-27T01:02:37;4.97;;;2.60;;
17052;SDS011;8643;48.824;11.422;2024-01-27T01:05:07;4.60;;;2.70;;
17052;SDS011;8643;48.824;11.422;2024-01-27T01:07:36;7.83;;;2.43;;
17052;SDS011;8643;48.824;11.422;2024-01-27T01:10:05;8.20;;;2.53;;
17052;SDS011;8643;48.824;11.422;2024-01-27T01:12:34;6.83;;;2.50;;
17052;SDS011;8643;48.824;11.422;2024-01-27T01:15:03;6.43;;;2.40;;
17052;SDS011;8643;48.824;11.422;2024-01-27T01:17:34;5.60;;;2.33;;
17052;SDS011;8643;48.824;11.422;2024-01-27T01:20:03;5.53;;;2.20;;
17052;SDS011;8643;48.824;11.422;2024-01-27T01:22:33;4.50;;;2.33;;
17052;SDS011;8643;48.824;11.422;2024-01-27T01:25:01;5.63;;;2.10;;
17052;SDS011;8643;48.824;11.422;2024-01-27T01:27:30;4.67;;;2.43;;
17052;SDS011;8643;48.824;11.422;2024-01-27T01:29:59;6.93;;;2.90;;
17052;SDS011;8643;48.824;11.422;2024-01-27T01:32:29;7.57;;;2.83;;
17052;SDS011;8643;48.824;11.422;2024-01-27T01:34:57;7.77;;;3.60;;
17052;SDS011;8643;48.824;11.422;2024-01-27T01:37:26;9.00;;;3.70;;
17052;SDS011;8643;48.824;11.422;2024-01-27T01:39:55;8.33;;;3.03;;
17052;SDS011;8643;48.824;11.422;2024-01-27T01:42:23;7.90;;;3.50;;
17052;SDS011;8643;48.824;11.422;2024-01-27T01:44:52;6.13;;;3.30;;
17052;SDS011;8643;48.824;11.422;2024-01-27T01:47:21;9.37;;;3.40;;
17052;SDS011;8643;48.824;11.422;2024-01-27T01:49:51;6.67;;;3.00;;
17052;SDS011;8643;48.824;11.422;2024-01-27T01:52:21;9.10;;;3.00;;
17052;SDS011;8643;48.824;11.422;2024-01-27T01:54:50;8.43;;;2.73;;
17052;SDS011;8643;48.824;11.422;2024-01-27T01:57:19;6.47;;;2.90;;
17052;SDS011;8643;48.824;11.422;2024-01-27T01:59:47;6.77;;;2.57;;
17052;SDS011;8643;48.824;11.422;2024-01-27T02:02:16;8.03;;;2.90;;
17052;SDS011;8643;48.824;11.422;2024-01-27T02:04:45;6.40;;;2.87;;
17052;SDS011;8643;48.824;11.422;2024-01-27T02:07:15;7.47;;;2.80;;
17052;SDS011;8643;48.824;11.422;2024-01-27T02:09:43;8.40;;;2.60;;
17052;SDS011;8643;48.824;11.422;2024-01-27T02:12:12;7.33;;;2.67;;
17052;SDS011;8643;48.824;11.422;2024-01-27T02:14:40;8.33;;;3.03;;
17052;SDS011;8643;48.824;11.422;2024-01-27T02:17:09;7.43;;;3.00;;
17052;SDS011;8643;48.824;11.422;2024-01-27T02:19:37;6.33;;;2.63;;
17052;SDS011;8643;48.824;11.422;2024-01-27T02:22:06;6.87;;;2.90;;
17052;SDS011;8643;48.824;11.422;2024-01-27T02:24:35;10.37;;;3.30;;
17052;SDS011;8643;48.824;11.422;2024-01-27T02:27:04;9.90;;;3.10;;
17052;SDS011;8643;48.824;11.422;2024-01-27T02:29:32;7.40;;;2.90;;
17052;SDS011;8643;48.824;11.422;2024-01-27T02:32:01;9.13;;;2.70;;
17052;SDS011;8643;48.824;11.422;2024-01-27T02:34:29;6.30;;;2.60;;
17052;SDS011;8643;48.824;11.422;2024-01-27T02:36:58;7.53;;;2.47;;
17052;SDS011;8643;48.824;11.422;2024-01-27T02:39:26;5.93;;;2.40;;
17052;SDS011;8643;48.824;11.422;2024-01-27T02:41:56;9.83;;;2.80;;
17052;SDS011;8643;48.824;11.422;2024-01-27T02:44:25;8.43;;;2.70;;
17052;SDS011;8643;48.824;11.422;2024-01-27T02:46:53;7.03;;;2.50;;
17052;SDS011;8643;48.824;11.422;2024-01-27T02:49:22;8.87;;;2.53;;
17052;SDS011;8643;48.824;11.422;2024-01-27T02:51:50;8.23;;;3.00;;
17052;SDS011;8643;48.824;11.422;2024-01-27T02:54:18;7.37;;;2.67;;
17052;SDS011;8643;48.824;11.422;2024-01-27T02:56:47;6.17;;;2.80;;
17052;SDS011;8643;48.824;11.422;2024-01-27T02:59:17;6.23;;;2.60;;
17052;SDS011;8643;48.824;11.422;2024-01-27T03:01:46;8.50;;;2.40;;
17052;SDS011;8643;48.824;11.422;2024-01-27T03:04:14;7.17;;;2.37;;
17052;SDS011;8643;48.824;11.422;2024-01-27T03:06:43;5.53;;;2.50;;
17052;SDS011;8643;48.824;11.422;2024-01-27T03:09:12;5.27;;;2.47;;
17052;SDS011;8643;48.824;11.422;2024-01-27T03:11:40;5.90;;;2.20;;
17052;SDS011;8643;48.824;11.422;2024-01-27T03:14:09;2.87;;;2.03;;
17052;SDS011;8643;48.824;11.422;2024-01-27T03:16:39;5.53;;;2.30;;
17052;SDS011;8643;48.824;11.422;2024-01-27T03:19:07;5.47;;;2.10;;
17052;SDS011;8643;48.824;11.422;2024-01-27T03:21:36;9.77;;;2.60;;
17052;SDS011;8643;48.824;11.422;2024-01-27T03:24:04;8.57;;;2.77;;
17052;SDS011;8643;48.824;11.422;2024-01-27T03:26:33;6.20;;;2.53;;
17052;SDS011;8643;48.824;11.422;2024-01-27T03:29:02;7.70;;;2.77;;
17052;SDS011;8643;48.824;11.422;2024-01-27T03:31:30;10.03;;;2.77;;
17052;SDS011;8643;48.824;11.422;2024-01-27T03:34:00;6.50;;;2.43;;
17052;SDS011;8643;48.824;11.422;2024-01-27T03:36:30;9.00;;;2.37;;
17052;SDS011;8643;48.824;11.422;2024-01-27T03:38:59;10.60;;;3.00;;
17052;SDS011;8643;48.824;11.422;2024-01-27T03:41:28;7.10;;;2.50;;
17052;SDS011;8643;48.824;11.422;2024-01-27T03:43:56;8.30;;;3.10;;
17052;SDS011;8643;48.824;11.422;2024-01-27T03:46:25;13.97;;;3.00;;
17052;SDS011;8643;48.824;11.422;2024-01-27T03:48:53;8.83;;;3.33;;
17052;SDS011;8643;48.824;11.422;2024-01-27T03:51:23;11.30;;;3.33;;
17052;SDS011;8643;48.824;11.422;2024-01-27T03:53:52;7.53;;;2.87;;
17052;SDS011;8643;48.824;11.422;2024-01-27T03:56:21;14.40;;;3.20;;
17052;SDS011;8643;48.824;11.422;2024-01-27T03:58:49;7.03;;;2.83;;
17052;SDS011;8643;48.824;11.422;2024-01-27T04:01:18;8.80;;;3.10;;
17052;SDS011;8643;48.824;11.422;2024-01-27T04:03:46;5.37;;;2.80;;
17052;SDS011;8643;48.824;11.422;2024-01-27T04:06:15;9.30;;;3.20;;
17052;SDS011;8643;48.824;11.422;2024-01-27T04:08:45;10.33;;;2.60;;
17052;SDS011;8643;48.824;11.422;2024-01-27T04:11:19;4.97;;;2.33;;
17052;SDS011;8643;48.824;11.422;2024-01-27T04:13:49;6.57;;;2.87;;
17052;SDS011;8643;48.824;11.422;2024-01-27T04:16:18;7.37;;;2.80;;
17052;SDS011;8643;48.824;11.422;2024-01-27T04:18:46;8.87;;;3.00;;
17052;SDS011;8643;48.824;11.422;2024-01-27T04:21:15;13.83;;;3.23;;
17052;SDS011;8643;48.824;11.422;2024-01-27T04:23:45;7.10;;;2.73;;
17052;SDS011;8643;48.824;11.422;2024-01-27T04:26:13;9.20;;;3.40;;
17052;SDS011;8643;48.824;11.422;2024-01-27T04:28:42;9.23;;;3.17;;
17052;SDS011;8643;48.824;11.422;2024-01-27T04:31:11;6.50;;;3.00;;
17052;SDS011;8643;48.824;11.422;2024-01-27T04:33:39;9.57;;;3.40;;
17052;SDS011;8643;48.824;11.422;2024-01-27T04:36:08;6.67;;;2.50;;
17052;SDS011;8643;48.824;11.422;2024-01-27T04:38:37;9.97;;;2.97;;
17052;SDS011;8643;48.824;11.422;2024-01-27T04:41:06;9.67;;;3.27;;
17052;SDS011;8643;48.824;11.422;2024-01-27T04:43:35;7.00;;;2.70;;
17052;SDS011;8643;48.824;11.422;2024-01-27T04:46:03;5.77;;;2.77;;
17052;SDS011;8643;48.824;11.422;2024-01-27T04:48:32;8.33;;;2.67;;
17052;SDS011;8643;48.824;11.422;2024-01-27T04:51:00;5.70;;;2.50;;
17052;SDS011;8643;48.824;11.422;2024-01-27T04:53:29;11.60;;;3.10;;
17052;SDS011;8643;48.824;11.422;2024-01-27T04:55:57;8.60;;;2.60;;
17052;SDS011;8643;48.824;11.422;2024-01-27T04:58:27;4.80;;;2.83;;
17052;SDS011;8643;48.824;11.422;2024-01-27T05:00:55;6.60;;;3.10;;
17052;SDS011;8643;48.824;11.422;2024-01-27T05:03:24;6.07;;;2.67;;
17052;SDS011;8643;48.824;11.422;2024-01-27T05:05:52;7.40;;;3.13;;
17052;SDS011;8643;48.824;11.422;2024-01-27T05:08:21;9.70;;;3.27;;
17052;SDS011;8643;48.824;11.422;2024-01-27T05:10:49;9.07;;;3.60;;
17052;SDS011;8643;48.824;11.422;2024-01-27T05:13:21;12.97;;;5.03;;
17052;SDS011;8643;48.824;11.422;2024-01-27T05:15:51;22.50;;;7.07;;
17052;SDS011;8643;48.824;11.422;2024-01-27T05:18:19;17.17;;;6.17;;
17052;SDS011;8643;48.824;11.422;2024-01-27T05:20:48;9.63;;;4.30;;
17052;SDS011;8643;48.824;11.422;2024-01-27T05:23:16;9.03;;;3.70;;
17052;SDS011;8643;48.824;11.422;2024-01-27T05:25:44;11.07;;;4.07;;
17052;SDS011;8643;48.824;11.422;2024-01-27T05:28:12;8.60;;;3.07;;
17052;SDS011;8643;48.824;11.422;2024-01-27T05:30:41;8.77;;;3.07;;
17052;SDS011;8643;48.824;11.422;2024-01-27T05:33:11;10.63;;;3.03;;
17052;SDS011;8643;48.824;11.422;2024-01-27T05:35:40;8.70;;;2.93;;
17052;SDS011;8643;48.824;11.422;2024-01-27T05:38:08;6.00;;;2.80;;
17052;SDS011;8643;48.824;11.422;2024-01-27T05:40:37;6.37;;;2.83;;
17052;SDS011;8643;48.824;11.422;2024-01-27T05:43:07;10.50;;;3.00;;
17052;SDS011;8643;48.824;11.422;2024-01-27T05:45:35;9.33;;;3.20;;
17052;SDS011;8643;48.824;11.422;2024-01-27T05:48:04;9.03;;;3.27;;
17052;SDS011;8643;48.824;11.422;2024-01-27T05:50:36;6.63;;;3.03;;
17052;SDS011;8643;48.824;11.422;2024-01-27T05:53:04;6.07;;;3.07;;
17052;SDS011;8643;48.824;11.422;2024-01-27T05:55:32;12.80;;;4.37;;
17052;SDS011;8643;48.824;11.422;2024-01-27T05:58:01;10.47;;;5.00;;
17052;SDS011;8643;48.824;11.422;2024-01-27T06:00:30;15.07;;;5.40;;
17052;SDS011;8643;48.824;11.422;2024-01-27T06:02:58;17.27;;;5.60;;
17052;SDS011;8643;48.824;11.422;2024-01-27T06:05:27;14.27;;;5.40;;
17052;SDS011;8643;48.824;11.422;2024-01-27T06:07:56;23.03;;;7.20;;
17052;SDS011;8643;48.824;11.422;2024-01-27T06:10:25;27.20;;;8.90;;
17052;SDS011;8643;48.824;11.422;2024-01-27T06:12:53;34.87;;;11.13;;
17052;SDS011;8643;48.824;11.422;2024-01-27T06:15:22;34.10;;;12.43;;
17052;SDS011;8643;48.824;11.422;2024-01-27T06:17:51;30.73;;;9.77;;
17052;SDS011;8643;48.824;11.422;2024-01-27T06:20:19;21.53;;;6.20;;
17052;SDS011;8643;48.824;11.422;2024-01-27T06:22:48;16.83;;;4.80;;
17052;SDS011;8643;48.824;11.422;2024-01-27T06:25:17;12.90;;;5.17;;
17052;SDS011;8643;48.824;11.422;2024-01-27T06:27:46;12.33;;;5.40;;
17052;SDS011;8643;48.824;11.422;2024-01-27T06:30:15;11.70;;;4.90;;
17052;SDS011;8643;48.824;11.422;2024-01-27T06:32:45;16.80;;;5.23;;
17052;SDS011;8643;48.824;11.422;2024-01-27T06:35:15;19.33;;;7.47;;
17052;SDS011;8643;48.824;11.422;2024-01-27T06:37:43;18.43;;;7.23;;
17052;SDS011;8643;48.824;11.422;2024-01-27T06:40:12;11.27;;;5.20;;
17052;SDS011;8643;48.824;11.422;2024-01-27T06:42:43;14.97;;;6.73;;
17052;SDS011;8643;48.824;11.422;2024-01-27T06:45:11;30.47;;;11.63;;
17052;SDS011;8643;48.824;11.422;2024-01-27T06:47:40;28.57;;;11.77;;
17052;SDS011;8643;48.824;11.422;2024-01-27T06:50:08;27.00;;;8.67;;
17052;SDS011;8643;48.824;11.422;2024-01-27T06:52:37;23.80;;;8.50;;
17052;SDS011;8643;48.824;11.422;2024-01-27T06:55:06;20.47;;;8.23;;
17052;SDS011;8643;48.824;11.422;2024-01-27T06:57:37;18.27;;;8.20;;
17052;SDS011;8643;48.824;11.422;2024-01-27T07:00:09;18.80;;;8.47;;
17052;SDS011;8643;48.824;11.422;2024-01-27T07:02:42;23.13;;;9.13;;
17052;SDS011;8643;48.824;11.422;2024-01-27T07:05:10;16.50;;;5.37;;
17052;SDS011;8643;48.824;11.422;2024-01-27T07:07:41;20.43;;;5.17;;
17052;SDS011;8643;48.824;11.422;2024-01-27T07:10:10;13.17;;;4.80;;
17052;SDS011;8643;48.824;11.422;2024-01-27T07:12:38;12.90;;;4.53;;
17052;SDS011;8643;48.824;11.422;2024-01-27T07:15:07;11.00;;;4.40;;
17052;SDS011;8643;48.824;11.422;2024-01-27T07:17:37;13.53;;;4.70;;
17052;SDS011;8643;48.824;11.422;2024-01-27T07:20:07;17.93;;;4.17;;
17052;SDS011;8643;48.824;11.422;2024-01-27T07:22:37;15.07;;;4.87;;
17052;SDS011;8643;48.824;11.422;2024-01-27T07:25:06;13.47;;;4.40;;
17052;SDS011;8643;48.824;11.422;2024-01-27T07:27:36;9.77;;;4.73;;
17052;SDS011;8643;48.824;11.422;2024-01-27T07:30:05;12.10;;;4.33;;
17052;SDS011;8643;48.824;11.422;2024-01-27T07:32:39;8.77;;;4.20;;
17052;SDS011;8643;48.824;11.422;2024-01-27T07:35:08;13.57;;;6.13;;
17052;SDS011;8643;48.824;11.422;2024-01-27T07:37:36;17.53;;;5.63;;
17052;SDS011;8643;48.824;11.422;2024-01-27T07:40:05;23.57;;;7.97;;
17052;SDS011;8643;48.824;11.422;2024-01-27T07:42:35;16.87;;;7.30;;
17052;SDS011;8643;48.824;11.422;2024-01-27T07:45:05;30.83;;;10.20;;
17052;SDS011;8643;48.824;11.422;2024-01-27T07:47:35;42.97;;;17.57;;
17052;SDS011;8643;48.824;11.422;2024-01-27T07:50:05;47.73;;;18.07;;
17052;SDS011;8643;48.824;11.422;2024-01-27T07:52:36;28.27;;;10.23;;
17052;SDS011;8643;48.824;11.422;2024-01-27T07:55:04;21.40;;;7.50;;
17052;SDS011;8643;48.824;11.422;2024-01-27T07:57:33;19.43;;;5.90;;
17052;SDS011;8643;48.824;11.422;2024-01-27T08:00:02;21.37;;;6.03;;
17052;SDS011;8643;48.824;11.422;2024-01-27T08:02:33;13.00;;;5.77;;
17052;SDS011;8643;48.824;11.422;2024-01-27T08:05:02;14.67;;;6.43;;
17052;SDS011;8643;48.824;11.422;2024-01-27T08:07:33;15.83;;;6.57;;
17052;SDS011;8643;48.824;11.422;2024-01-27T08:10:02;12.83;;;5.57;;
17052;SDS011;8643;48.824;11.422;2024-01-27T08:12:31;13.63;;;6.47;;
17052;SDS011;8643;48.824;11.422;2024-01-27T08:15:00;13.67;;;7.00;;
17052;SDS011;8643;48.824;11.422;2024-01-27T08:17:28;14.23;;;6.50;;
17052;SDS011;8643;48.824;11.422;2024-01-27T08:19:57;17.83;;;7.27;;
17052;SDS011;8643;48.824;11.422;2024-01-27T08:22:27;13.77;;;7.40;;
17052;SDS011;8643;48.824;11.422;2024-01-27T08:24:55;17.57;;;6.83;;
17052;SDS011;8643;48.824;11.422;2024-01-27T08:27:24;18.43;;;7.77;;
17052;SDS011;8643;48.824;11.422;2024-01-27T08:29:52;14.50;;;6.63;;
17052;SDS011;8643;48.824;11.422;2024-01-27T08:32:23;19.97;;;7.00;;
17052;SDS011;8643;48.824;11.422;2024-01-27T08:34:52;17.00;;;7.10;;
17052;SDS011;8643;48.824;11.422;2024-01-27T08:37:21;11.07;;;5.73;;
17052;SDS011;8643;48.824;11.422;2024-01-27T08:39:51;15.80;;;5.77;;
17052;SDS011;8643;48.824;11.422;2024-01-27T08:42:20;17.40;;;6.40;;
17052;SDS011;8643;48.824;11.422;2024-01-27T08:44:48;26.50;;;8.90;;
17052;SDS011;8643;48.824;11.422;2024-01-27T08:47:17;23.27;;;9.07;;
17052;SDS011;8643;48.824;11.422;2024-01-27T08:49:45;27.83;;;8.63;;
17052;SDS011;8643;48.824;11.422;2024-01-27T08:52:14;14.43;;;6.60;;
17052;SDS011;8643;48.824;11.422;2024-01-27T08:54:42;15.50;;;6.13;;
17052;SDS011;8643;48.824;11.422;2024-01-27T08:57:12;13.50;;;5.40;;
17052;SDS011;8643;48.824;11.422;2024-01-27T08:59:40;11.73;;;4.80;;
17052;SDS011;8643;48.824;11.422;2024-01-27T09:02:09;11.03;;;4.43;;
17052;SDS011;8643;48.824;11.422;2024-01-27T09:04:37;12.53;;;5.13;;
17052;SDS011;8643;48.824;11.422;2024-01-27T09:07:06;9.83;;;4.77;;
17052;SDS011;8643;48.824;11.422;2024-01-27T09:09:34;11.13;;;5.00;;
17052;SDS011;8643;48.824;11.422;2024-01-27T09:12:04;10.20;;;4.50;;
17052;SDS011;8643;48.824;11.422;2024-01-27T09:14:35;14.70;;;4.80;;
17052;SDS011;8643;48.824;11.422;2024-01-27T09:17:03;11.53;;;5.50;;
17052;SDS011;8643;48.824;11.422;2024-01-27T09:19:32;12.97;;;5.20;;
17052;SDS011;8643;48.824;11.422;2024-01-27T09:22:00;13.23;;;6.33;;
17052;SDS011;8643;48.824;11.422;2024-01-27T09:24:29;14.80;;;5.57;;
17052;SDS011;8643;48.824;11.422;2024-01-27T09:26:57;12.93;;;5.07;;
17052;SDS011;8643;48.824;11.422;2024-01-27T09:29:25;11.73;;;5.07;;
17052;SDS011;8643;48.824;11.422;2024-01-27T09:31:55;11.23;;;4.90;;
17052;SDS011;8643;48.824;11.422;2024-01-27T09:34:24;11.80;;;4.80;;
17052;SDS011;8643;48.824;11.422;2024-01-27T09:36:54;10.10;;;4.30;;
17052;SDS011;8643;48.824;11.422;2024-01-27T09:39:22;11.53;;;4.30;;
17052;SDS011;8643;48.824;11.422;2024-01-27T09:41:51;12.23;;;4.53;;
17052;SDS011;8643;48.824;11.422;2024-01-27T09:44:21;14.07;;;4.93;;
17052;SDS011;8643;48.824;11.422;2024-01-27T09:46:52;14.93;;;5.03;;
17052;SDS011;8643;48.824;11.422;2024-01-27T09:49:23;12.27;;;5.00;;
17052;SDS011;8643;48.824;11.422;2024-01-27T09:51:55;12.37;;;4.40;;
17052;SDS011;8643;48.824;11.422;2024-01-27T09:54:24;11.53;;;4.80;;
17052;SDS011;8643;48.824;11.422;2024-01-27T09:56:52;10.73;;;4.67;;
17052;SDS011;8643;48.824;11.422;2024-01-27T09:59:25;12.97;;;4.40;;
17052;SDS011;8643;48.824;11.422;2024-01-27T10:01:54;14.93;;;4.30;;
17052;SDS011;8643;48.824;11.422;2024-01-27T10:04:25;14.40;;;4.10;;
17052;SDS011;8643;48.824;11.422;2024-01-27T10:06:56;10.00;;;3.97;;
17052;SDS011;8643;48.824;11.422;2024-01-27T10:09:26;13.90;;;4.50;;
17052;SDS011;8643;48.824;11.422;2024-01-27T10:11:54;13.33;;;4.63;;
17052;SDS011;8643;48.824;11.422;2024-01-27T10:14:24;13.63;;;5.07;;
17052;SDS011;8643;48.824;11.422;2024-01-27T10:16:52;13.57;;;5.30;;
17052;SDS011;8643;48.824;11.422;2024-01-27T10:19:21;14.77;;;4.90;;
17052;SDS011;8643;48.824;11.422;2024-01-27T10:21:59;9.67;;;4.40;;
17052;SDS011;8643;48.824;11.422;2024-01-27T10:24:29;13.17;;;5.07;;
17052;SDS011;8643;48.824;11.422;2024-01-27T10:26:59;12.70;;;4.43;;
17052;SDS011;8643;48.824;11.422;2024-01-27T10:29:30;10.90;;;4.07;;
17052;SDS011;8643;48.824;11.422;2024-01-27T10:32:07;13.40;;;4.27;;
17052;SDS011;8643;48.824;11.422;2024-01-27T10:34:36;10.40;;;4.43;;
17052;SDS011;8643;48.824;11.422;2024-01-27T10:37:09;10.37;;;4.70;;
17052;SDS011;8643;48.824;11.422;2024-01-27T10:39:40;13.93;;;5.07;;
17052;SDS011;8643;48.824;11.422;2024-01-27T10:42:09;15.03;;;4.83;;
17052;SDS011;8643;48.824;11.422;2024-01-27T10:44:39;13.30;;;4.63;;
17052;SDS011;8643;48.824;11.422;2024-01-27T10:47:12;17.73;;;4.83;;
17052;SDS011;8643;48.824;11.422;2024-01-27T10:49:46;10.37;;;4.50;;
17052;SDS011;8643;48.824;11.422;2024-01-27T10:52:17;13.80;;;4.97;;
17052;SDS011;8643;48.824;11.422;2024-01-27T10:54:55;14.17;;;5.27;;
17052;SDS011;8643;48.824;11.422;2024-01-27T10:57:29;13.83;;;4.87;;
17052;SDS011;8643;48.824;11.422;2024-01-27T11:00:00;18.33;;;5.77;;
17052;SDS011;8643;48.824;11.422;2024-01-27T11:02:33;14.67;;;4.20;;
17052;SDS011;8643;48.824;11.422;2024-01-27T11:05:06;13.83;;;4.13;;
17052;SDS011;8643;48.824;11.422;2024-01-27T11:07:39;13.33;;;5.20;;
17052;SDS011;8643;48.824;11.422;2024-01-27T11:10:09;16.30;;;4.83;;
17052;SDS011;8643;48.824;11.422;2024-01-27T11:12:38;11.83;;;5.37;;
17052;SDS011;8643;48.824;11.422;2024-01-27T11:15:08;11.93;;;4.73;;
17052;SDS011;8643;48.824;11.422;2024-01-27T11:17:40;12.20;;;4.60;;
17052;SDS011;8643;48.824;11.422;2024-01-27T11:20:10;14.00;;;4.67;;
17052;SDS011;8643;48.824;11.422;2024-01-27T11:22:41;14.43;;;4.50;;
17052;SDS011;8643;48.824;11.422;2024-01-27T11:25:14;8.63;;;3.90;;
17052;SDS011;8643;48.824;11.422;2024-01-27T11:27:45;12.93;;;4.03;;
17052;SDS011;8643;48.824;11.422;2024-01-27T11:30:24;13.90;;;3.50;;
17052;SDS011;8643;48.824;11.422;2024-01-27T11:33:00;14.23;;;3.77;;
17052;SDS011;8643;48.824;11.422;2024-01-27T11:35:31;11.43;;;3.40;;
17052;SDS011;8643;48.824;11.422;2024-01-27T11:38:01;12.73;;;3.20;;
17052;SDS011;8643;48.824;11.422;2024-01-27T11:40:30;14.70;;;3.33;;
17052;SDS011;8643;48.824;11.422;2024-01-27T11:43:00;13.47;;;3.60;;
17052;SDS011;8643;48.824;11.422;2024-01-27T11:45:34;14.27;;;3.20;;
17052;SDS011;8643;48.824;11.422;2024-01-27T11:48:02;10.33;;;3.90;;
17052;SDS011;8643;48.824;11.422;2024-01-27T11:50:33;8.17;;;3.73;;
17052;SDS011;8643;48.824;11.422;2024-01-27T11:53:03;14.20;;;4.00;;
17052;SDS011;8643;48.824;11.422;2024-01-27T11:55:36;14.70;;;3.27;;
17052;SDS011;8643;48.824;11.422;2024-01-27T11:58:07;12.87;;;4.07;;
17052;SDS011;8643;48.824;11.422;2024-01-27T12:00:36;12.67;;;3.80;;
17052;SDS011;8643;48.824;11.422;2024-01-27T12:03:06;12.87;;;3.23;;
17052;SDS011;8643;48.824;11.422;2024-01-27T12:05:35;13.00;;;3.60;;
17052;SDS011;8643;48.824;11.422;2024-01-27T12:08:07;11.70;;;3.20;;
17052;SDS011;8643;48.824;11.422;2024-01-27T12:10:36;13.13;;;3.47;;
17052;SDS011;8643;48.824;11.422;2024-01-27T12:13:05;12.77;;;3.07;;
17052;SDS011;8643;48.824;11.422;2024-01-27T12:15:34;11.80;;;2.90;;
17052;SDS011;8643;48.824;11.422;2024-01-27T12:18:04;10.63;;;2.87;;
17052;SDS011;8643;48.824;11.422;2024-01-27T12:20:33;13.57;;;3.17;;
17052;SDS011;8643;48.824;11.422;2024-01-27T12:23:02;10.73;;;3.07;;
17052;SDS011;8643;48.824;11.422;2024-01-27T12:25:33;8.00;;;3.27;;
17052;SDS011;8643;48.824;11.422;2024-01-27T12:28:02;11.13;;;3.07;;
17052;SDS011;8643;48.824;11.422;2024-01-27T12:30:31;12.53;;;3.20;;
17052;SDS011;8643;48.824;11.422;2024-01-27T12:33:00;10.90;;;3.47;;
17052;SDS011;8643;48.824;11.422;2024-01-27T12:35:29;12.67;;;3.10;;
17052;SDS011;8643;48.824;11.422;2024-01-27T12:37:59;9.73;;;2.50;;
17052;SDS011;8643;48.824;11.422;2024-01-27T12:40:28;12.83;;;2.70;;
17052;SDS011;8643;48.824;11.422;2024-01-27T12:42:58;9.70;;;2.40;;
17052;SDS011;8643;48.824;11.422;2024-01-27T12:45:27;9.80;;;2.90;;
17052;SDS011;8643;48.824;11.422;2024-01-27T12:47:56;9.63;;;2.67;;
17052;SDS011;8643;48.824;11.422;2024-01-27T12:50:26;11.83;;;2.90;;
17052;SDS011;8643;48.824;11.422;2024-01-27T12:52:54;10.38;;;2.92;;
17052;SDS011;8643;48.824;11.422;2024-01-27T12:55:23;13.15;;;3.05;;
17052;SDS011;8643;48.824;11.422;2024-01-27T12:57:51;12.02;;;3.28;;
17052;SDS011;8643;48.824;11.422;2024-01-27T13:00:21;10.07;;;2.95;;
17052;SDS011;8643;48.824;11.422;2024-01-27T13:02:49;7.50;;;2.70;;
17052;SDS011;8643;48.824;11.422;2024-01-27T13:05:18;11.15;;;2.38;;
17052;SDS011;8643;48.824;11.422;2024-01-27T13:07:47;7.13;;;2.42;;
17052;SDS011;8643;48.824;11.422;2024-01-27T13:10:15;14.07;;;2.50;;
17052;SDS011;8643;48.824;11.422;2024-01-27T13:12:44;8.43;;;2.47;;
17052;SDS011;8643;48.824;11.422;2024-01-27T13:15:13;8.73;;;2.40;;
17052;SDS011;8643;48.824;11.422;2024-01-27T13:17:43;8.38;;;2.47;;
17052;SDS011;8643;48.824;11.422;2024-01-27T13:20:11;7.13;;;2.65;;
17052;SDS011;8643;48.824;11.422;2024-01-27T13:22:44;8.10;;;2.55;;
17052;SDS011;8643;48.824;11.422;2024-01-27T13:25:13;8.07;;;2.95;;
17052;SDS011;8643;48.824;11.422;2024-01-27T13:27:41;5.30;;;2.60;;
17052;SDS011;8643;48.824;11.422;2024-01-27T13:30:10;8.90;;;2.70;;
17052;SDS011;8643;48.824;11.422;2024-01-27T13:32:39;8.68;;;2.78;;
17052;SDS011;8643;48.824;11.422;2024-01-27T13:35:09;8.38;;;2.70;;
17052;SDS011;8643;48.824;11.422;2024-01-27T13:37:38;7.68;;;2.70;;
17052;SDS011;8643;48.824;11.422;2024-01-27T13:40:07;9.23;;;2.53;;
17052;SDS011;8643;48.824;11.422;2024-01-27T13:42:36;7.30;;;2.70;;
17052;SDS011;8643;48.824;11.422;2024-01-27T13:45:05;7.43;;;2.38;;
17052;SDS011;8643;48.824;11.422;2024-01-27T13:47:35;7.38;;;2.70;;
17052;SDS011;8643;48.824;11.422;2024-01-27T13:50:04;8.05;;;3.15;;
17052;SDS011;8643;48.824;11.422;2024-01-27T13:52:35;7.70;;;2.80;;
17052;SDS011;8643;48.824;11.422;2024-01-27T13:55:04;8.75;;;2.60;;
17052;SDS011;8643;48.824;11.422;2024-01-27T13:57:33;8.45;;;2.60;;
17052;SDS011;8643;48.824;11.422;2024-01-27T14:00:02;6.63;;;2.53;;
17052;SDS011;8643;48.824;11.422;2024-01-27T14:02:32;8.40;;;2.70;;
17052;SDS011;8643;48.824;11.422;2024-01-27T14:05:04;10.20;;;2.55;;
17052;SDS011;8643;48.824;11.422;2024-01-27T14:07:33;10.38;;;3.20;;
17052;SDS011;8643;48.824;11.422;2024-01-27T14:10:03;6.47;;;2.10;;
17052;SDS011;8643;48.824;11.422;2024-01-27T14:12:32;7.85;;;3.13;;
17052;SDS011;8643;48.824;11.422;2024-01-27T14:15:04;6.88;;;2.50;;
17052;SDS011;8643;48.824;11.422;2024-01-27T14:17:34;8.65;;;2.40;;
17052;SDS011;8643;48.824;11.422;2024-01-27T14:20:03;9.32;;;3.00;;
17052;SDS011;8643;48.824;11.422;2024-01-27T14:22:37;5.65;;;2.17;;
17052;SDS011;8643;48.824;11.422;2024-01-27T14:25:06;8.65;;;2.30;;
17052;SDS011;8643;48.824;11.422;2024-01-27T14:27:36;8.20;;;2.30;;
17052;SDS011;8643;48.824;11.422;2024-01-27T14:30:05;6.80;;;2.60;;
17052;SDS011;8643;48.824;11.422;2024-01-27T14:32:37;5.85;;;2.10;;
17052;SDS011;8643;48.824;11.422;2024-01-27T14:35:06;8.10;;;2.47;;
17052;SDS011;8643;48.824;11.422;2024-01-27T14:37:35;12.38;;;3.30;;
17052;SDS011;8643;48.824;11.422;2024-01-27T14:40:06;9.02;;;3.30;;
17052;SDS011;8643;48.824;11.422;2024-01-27T14:42:36;7.22;;;2.65;;
17052;SDS011;8643;48.824;11.422;2024-01-27T14:45:06;9.52;;;2.63;;
17052;SDS011;8643;48.824;11.422;2024-01-27T14:47:36;7.75;;;2.60;;
17052;SDS011;8643;48.824;11.422;2024-01-27T14:50:05;7.50;;;2.60;;
17052;SDS011;8643;48.824;11.422;2024-01-27T14:52:34;8.05;;;2.90;;